Time;durP1;ratioP1;P1;durP2;ratioP2;P2;SDS_P1;SDS_P2;PMS_P1;PMS_P2;Temp;Humidity;BMP_temperature;BMP_pressure;BME280_temperature;BME280_humidity;BME280_pressure;Samples;Min_cycle;Max_cycle;Signal;HPM_P1;HPM_P2
2023/04/07 00:02:51;;;;;;;6.10;5.40;;;;;;;22.20;26.93;94734.28;6168228;23;110038;-63
2023/04/07 00:05:54;;;;;;;5.63;5.23;;;;;;;22.20;27.07;94744.16;6164828;28;109294;-64
2023/04/07 00:08:59;;;;;;;7.20;6.60;;;;;;;22.20;26.96;94741.50;6122961;28;109150;-63
2023/04/07 00:12:02;;;;;;;5.73;5.33;;;;;;;22.21;27.29;94743.06;6084587;28;109352;-63
2023/04/07 00:15:06;;;;;;;5.90;5.50;;;;;;;22.19;27.30;94735.38;6117598;28;109455;-63
2023/04/07 00:18:09;;;;;;;6.20;5.70;;;;;;;22.20;27.06;94736.94;6087567;28;109582;-63
2023/04/07 00:21:12;;;;;;;6.83;6.23;;;;;;;22.20;26.88;94728.94;6076778;28;110828;-64
2023/04/07 00:24:17;;;;;;;5.77;5.30;;;;;;;22.19;26.97;94734.59;6135937;28;109151;-64
2023/04/07 00:27:35;;;;;;;6.17;5.77;;;;;;;22.19;26.98;94731.94;6084780;28;110307;-64
2023/04/07 00:30:38;;;;;;;6.90;6.40;;;;;;;22.21;27.20;94732.41;6079461;28;112458;-63
2023/04/07 00:33:42;;;;;;;6.80;6.30;;;;;;;22.19;26.61;94724.72;6065610;28;109129;-64
2023/04/07 00:36:50;;;;;;;6.50;6.00;;;;;;;22.18;26.75;94722.34;6092613;28;108929;-63
2023/04/07 00:39:56;;;;;;;6.73;6.23;;;;;;;22.20;27.10;94720.94;6078713;28;108847;-63
2023/04/07 00:42:59;;;;;;;6.47;6.07;;;;;;;22.20;27.02;94741.50;6068432;28;109191;-64
2023/04/07 00:46:02;;;;;;;7.03;6.53;;;;;;;22.17;26.84;94720.78;6070222;28;109738;-64
2023/04/07 00:49:06;;;;;;;8.10;7.40;;;;;;;22.20;26.73;94726.28;6097110;28;109210;-64
2023/04/07 00:52:12;;;;;;;6.70;6.20;;;;;;;22.20;26.97;94726.28;6102651;28;109337;-63
2023/04/07 00:55:17;;;;;;;6.80;6.30;;;;;;;22.19;27.07;94730.06;6082354;28;109555;-64
2023/04/07 00:58:20;;;;;;;6.53;6.03;;;;;;;22.16;26.67;94730.66;6084688;28;109085;-64
2023/04/07 01:01:27;;;;;;;7.13;6.60;;;;;;;22.21;27.20;94730.50;6094285;28;109316;-63
2023/04/07 01:04:33;;;;;;;7.90;7.30;;;;;;;22.21;26.82;94730.50;6083797;28;109203;-64
2023/04/07 01:07:44;;;;;;;7.00;6.50;;;;;;;22.22;26.83;94724.09;6067041;28;109388;-63
2023/04/07 01:10:52;;;;;;;6.93;6.43;;;;;;;22.21;27.11;94727.84;6150049;28;109222;-64
2023/04/07 01:13:57;;;;;;;7.53;6.93;;;;;;;22.23;26.92;94724.88;6091510;28;110172;-64
2023/04/07 01:17:04;;;;;;;7.90;7.30;;;;;;;22.20;27.13;94725.50;6066523;28;109915;-63
2023/04/07 01:20:12;;;;;;;8.20;7.50;;;;;;;22.23;26.81;94719.53;6155523;28;109216;-64
2023/04/07 01:23:25;;;;;;;7.73;7.07;;;;;;;22.21;26.86;94717.19;6163652;28;109049;-63
2023/04/07 01:26:32;;;;;;;8.50;7.80;;;;;;;22.23;26.95;94719.53;6122763;28;109288;-63
2023/04/07 01:29:40;;;;;;;9.40;8.50;;;;;;;22.22;26.61;94716.09;6108828;28;108894;-64
2023/04/07 01:32:46;;;;;;;9.00;8.20;;;;;;;22.23;26.91;94708.88;6045359;28;109550;-63
2023/04/07 01:35:51;;;;;;;9.60;8.80;;;;;;;22.23;27.05;94715.00;6053796;28;109227;-64
2023/04/07 01:38:56;;;;;;;9.03;8.37;;;;;;;22.23;27.14;94711.53;6120503;28;109277;-64
2023/04/07 01:42:01;;;;;;;9.73;8.87;;;;;;;22.23;26.60;94708.88;6071992;28;111709;-64
2023/04/07 01:45:09;;;;;;;9.63;8.80;;;;;;;22.23;26.81;94703.53;6054238;28;109107;-64
2023/04/07 01:48:13;;;;;;;11.27;10.37;;;;;;;22.23;26.71;94703.53;6057854;28;108970;-64
2023/04/07 01:51:18;;;;;;;10.37;9.47;;;;;;;22.22;26.99;94699.31;6043344;28;109293;-64
2023/04/07 01:54:22;;;;;;;11.33;10.23;;;;;;;22.23;26.67;94703.53;6050629;28;109103;-64
2023/04/07 01:57:25;;;;;;;10.40;9.50;;;;;;;22.23;27.06;94698.22;6063337;28;109172;-64
2023/04/07 02:00:29;;;;;;;9.90;9.20;;;;;;;22.23;26.68;94700.88;6067875;28;109122;-64
2023/04/07 02:03:40;;;;;;;10.90;10.10;;;;;;;22.22;26.36;94696.66;6072324;28;109119;-65
2023/04/07 02:06:49;;;;;;;11.00;10.10;;;;;;;22.21;26.51;94698.53;6102755;28;111706;-64
2023/04/07 02:09:56;;;;;;;11.70;10.60;;;;;;;22.22;26.73;94696.66;6066509;28;109112;-64
2023/04/07 02:13:01;;;;;;;11.40;10.47;;;;;;;22.22;27.05;94701.97;6055930;28;110268;-64
2023/04/07 02:16:07;;;;;;;11.03;10.13;;;;;;;22.23;26.75;94698.22;6050946;28;109272;-64
2023/04/07 02:19:10;;;;;;;10.87;10.07;;;;;;;22.22;26.97;94694.75;6068941;28;109163;-64
2023/04/07 02:22:16;;;;;;;11.50;10.60;;;;;;;22.21;26.87;94700.41;6046507;28;110171;-64
2023/04/07 02:25:24;;;;;;;10.80;10.00;;;;;;;22.21;26.51;94693.19;6044361;28;109272;-64
2023/04/07 02:28:27;;;;;;;11.30;10.30;;;;;;;22.22;26.93;94694.75;6093044;28;109119;-64
2023/04/07 02:31:31;;;;;;;10.83;10.03;;;;;;;22.20;26.46;94694.31;6072175;28;109007;-64
2023/04/07 02:34:34;;;;;;;11.57;10.53;;;;;;;22.21;26.82;94690.53;6068458;28;109324;-64
2023/04/07 02:37:38;;;;;;;11.23;10.33;;;;;;;22.19;26.99;94686.63;6053250;28;109111;-63
2023/04/07 02:40:41;;;;;;;11.70;10.70;;;;;;;22.22;26.55;94701.97;6060737;28;109192;-63
2023/04/07 02:43:43;;;;;;;11.60;10.70;;;;;;;22.20;26.81;94688.97;6061264;28;109528;-64
2023/04/07 02:46:48;;;;;;;12.53;11.53;;;;;;;22.23;26.83;94698.22;6069062;28;108819;-63
2023/04/07 02:49:52;;;;;;;11.57;10.67;;;;;;;22.22;26.72;94691.31;6056120;28;109594;-63
2023/04/07 02:52:55;;;;;;;12.90;11.80;;;;;;;22.19;26.94;94691.94;6063679;28;110163;-64
2023/04/07 02:55:58;;;;;;;12.10;11.10;;;;;;;22.22;26.72;94707.31;6132189;28;109124;-64
2023/04/07 02:59:01;;;;;;;12.30;11.23;;;;;;;22.21;26.56;94705.75;6111866;28;109228;-64
2023/04/07 03:02:06;;;;;;;12.10;11.00;;;;;;;22.21;26.58;94708.41;6070877;28;111817;-64
2023/04/07 03:05:10;;;;;;;12.93;11.93;;;;;;;22.21;27.06;94713.75;6143391;28;109029;-66
2023/04/07 03:08:13;;;;;;;12.30;11.30;;;;;;;22.14;26.94;94708.88;6053654;28;109213;-64
2023/04/07 03:11:16;;;;;;;11.80;10.70;;;;;;;22.21;26.69;94716.41;6057756;28;109933;-66
2023/04/07 03:14:19;;;;;;;11.30;10.20;;;;;;;22.29;26.95;94710.28;6127681;28;109722;-63
2023/04/07 03:17:23;;;;;;;9.93;9.13;;;;;;;22.36;27.25;94724.72;6093967;28;109163;-63
2023/04/07 03:20:28;;;;;;;12.20;10.97;;;;;;;22.43;26.57;94716.22;6052653;28;109018;-63
2023/04/07 03:23:31;;;;;;;10.73;9.80;;;;;;;22.46;27.04;94720.13;6104327;28;109216;-63
2023/04/07 03:26:34;;;;;;;10.50;9.60;;;;;;;22.40;26.98;94714.19;6046157;28;109191;-63
2023/04/07 03:29:37;;;;;;;11.40;10.50;;;;;;;22.46;26.86;94722.81;6072647;28;108977;-62
2023/04/07 03:32:41;;;;;;;10.67;9.77;;;;;;;22.50;26.84;94707.75;6064874;28;109951;-62
2023/04/07 03:35:44;;;;;;;9.37;8.67;;;;;;;22.52;27.07;94706.34;6049442;28;111507;-62
2023/04/07 03:38:48;;;;;;;10.63;9.83;;;;;;;22.56;27.02;94699.28;6107333;28;111064;-63
2023/04/07 03:41:51;;;;;;;10.10;9.30;;;;;;;22.56;26.87;94709.94;6082125;28;109100;-63
2023/04/07 03:44:54;;;;;;;10.60;9.70;;;;;;;22.56;26.26;94701.16;6117968;28;110157;-63
2023/04/07 03:48:00;;;;;;;10.77;9.77;;;;;;;22.39;27.25;94701.97;6061083;28;109201;-64
2023/04/07 03:51:03;;;;;;;15.53;14.23;;;;;;;22.07;25.75;94695.25;6065211;28;109195;-64
2023/04/07 03:54:06;;;;;;;14.73;13.10;;;;;;;21.96;26.40;94715.28;6044945;28;109086;-68
2023/04/07 03:57:10;;;;;;;12.23;11.03;;;;;;;22.04;26.42;94704.66;6039189;28;109184;-68
2023/04/07 04:00:14;;;;;;;12.23;11.13;;;;;;;22.11;25.78;94706.84;6082850;28;109227;-68
2023/04/07 04:03:18;;;;;;;14.33;12.93;;;;;;;22.17;26.73;94704.78;6084691;28;112055;-67
2023/04/07 04:06:22;;;;;;;13.83;12.70;;;;;;;22.21;26.79;94711.06;6109205;28;108770;-68
2023/04/07 04:09:25;;;;;;;15.63;14.20;;;;;;;22.27;26.58;94723.13;6063980;28;109051;-69
2023/04/07 04:12:28;;;;;;;15.40;14.10;;;;;;;22.32;27.13;94720.31;6076923;28;109891;-68
2023/04/07 04:15:32;;;;;;;15.07;13.77;;;;;;;22.35;27.15;94725.81;6078287;28;109891;-70
2023/04/07 04:18:36;;;;;;;14.40;13.00;;;;;;;22.38;27.57;94729.72;6073385;28;109589;-69
2023/04/07 04:21:39;;;;;;;13.87;12.67;;;;;;;22.34;27.54;94726.09;6036789;28;109076;-62
2023/04/07 04:24:43;;;;;;;13.40;12.20;;;;;;;22.44;27.08;94730.34;6042446;28;110186;-62
2023/04/07 04:27:46;;;;;;;13.30;12.10;;;;;;;22.52;26.54;94735.69;6041872;28;109564;-62
2023/04/07 04:30:49;;;;;;;12.30;11.30;;;;;;;22.57;26.38;94734.75;6072560;28;108901;-62
2023/04/07 04:33:53;;;;;;;12.13;11.03;;;;;;;22.59;26.85;94741.34;6089594;28;109194;-62
2023/04/07 04:36:56;;;;;;;12.07;10.97;;;;;;;22.60;26.58;94740.22;6089763;28;108959;-62
2023/04/07 04:39:59;;;;;;;11.43;10.53;;;;;;;22.61;26.62;94741.00;6089727;28;108952;-62
2023/04/07 04:43:05;;;;;;;12.87;11.67;;;;;;;22.61;26.75;94746.34;6079721;28;109068;-62
2023/04/07 04:46:08;;;;;;;12.53;11.33;;;;;;;22.60;26.77;94750.91;6089619;28;109102;-62
2023/04/07 04:49:14;;;;;;;12.13;10.93;;;;;;;22.60;26.80;94756.22;6088843;28;109881;-62
2023/04/07 04:52:17;;;;;;;11.60;10.60;;;;;;;22.61;26.73;94757.00;6089589;28;109094;-62
2023/04/07 04:55:20;;;;;;;11.97;10.80;;;;;;;22.62;26.21;94763.91;6079239;28;109000;-62
2023/04/07 04:58:25;;;;;;;11.50;10.40;;;;;;;22.61;26.22;94760.47;6089483;28;109104;-62
2023/04/07 05:01:28;;;;;;;10.60;9.67;;;;;;;22.62;26.61;94759.38;6089238;28;108855;-61
2023/04/07 05:04:36;;;;;;;11.20;10.20;;;;;;;22.60;25.99;94756.22;6080225;28;110577;-62
2023/04/07 05:07:40;;;;;;;11.00;10.00;;;;;;;22.64;26.24;94773.16;6088393;28;110250;-62
2023/04/07 05:10:44;;;;;;;10.60;9.73;;;;;;;22.65;25.92;94769.41;6089467;28;109018;-62
2023/04/07 05:13:49;;;;;;;10.80;9.57;;;;;;;22.67;26.15;94769.09;6088621;28;110077;-62
2023/04/07 05:16:53;;;;;;;11.13;10.13;;;;;;;22.69;25.82;94767.69;6077949;28;110208;-62
2023/04/07 05:19:57;;;;;;;10.30;9.40;;;;;;;22.69;25.95;94766.91;6088257;28;110491;-62
2023/04/07 05:23:01;;;;;;;10.80;9.80;;;;;;;22.71;26.24;94772.72;6088453;28;110153;-62
2023/04/07 05:26:04;;;;;;;10.03;9.20;;;;;;;22.69;26.41;94778.34;6088456;28;110061;-62
2023/04/07 05:29:07;;;;;;;9.50;8.70;;;;;;;22.72;25.82;94776.16;6071638;28;109363;-62
2023/04/07 05:32:10;;;;;;;9.57;8.87;;;;;;;22.74;26.06;94781.97;6048278;28;109068;-62
2023/04/07 05:35:15;;;;;;;9.43;8.73;;;;;;;22.72;25.56;94781.50;6041351;28;110064;-62
2023/04/07 05:38:18;;;;;;;9.93;9.03;;;;;;;22.72;25.87;94790.28;6035995;28;110014;-62
2023/04/07 05:41:21;;;;;;;8.83;8.20;;;;;;;22.74;25.65;94781.97;6035515;28;110007;-62
2023/04/07 05:44:24;;;;;;;10.30;9.40;;;;;;;22.75;26.24;94784.31;6040718;28;110011;-61
2023/04/07 05:47:27;;;;;;;9.40;8.67;;;;;;;22.75;26.05;94783.53;6040783;28;109658;-62
2023/04/07 05:50:32;;;;;;;9.03;8.33;;;;;;;22.80;26.01;94783.34;6030808;28;109117;-62
2023/04/07 05:53:35;;;;;;;8.67;7.97;;;;;;;22.86;25.65;94780.22;6040693;28;110183;-62
2023/04/07 05:56:38;;;;;;;9.67;8.87;;;;;;;22.94;25.93;94775.94;6041215;28;109109;-62
2023/04/07 05:59:41;;;;;;;9.03;8.33;;;;;;;23.06;25.54;94784.09;6063486;28;110125;-62
2023/04/07 06:02:44;;;;;;;8.90;8.10;;;;;;;23.05;25.48;94784.41;6065713;28;110303;-62
2023/04/07 06:05:49;;;;;;;8.77;8.00;;;;;;;23.04;25.64;94783.63;6041289;28;109068;-62
2023/04/07 06:08:52;;;;;;;8.93;8.30;;;;;;;23.10;25.98;94784.25;6041104;28;109465;-62
2023/04/07 06:11:56;;;;;;;8.13;7.50;;;;;;;23.16;25.50;94778.41;6039722;28;109216;-61
2023/04/07 06:15:00;;;;;;;8.20;7.60;;;;;;;23.33;25.25;94784.81;6032697;28;110334;-66
2023/04/07 06:18:03;;;;;;;8.50;7.80;;;;;;;23.41;25.20;94779.47;6040794;28;109590;-62
2023/04/07 06:21:08;;;;;;;8.83;8.10;;;;;;;23.49;25.33;94788.53;6041099;28;109105;-63
2023/04/07 06:24:11;;;;;;;8.23;7.50;;;;;;;23.56;25.54;94781.59;6031023;28;109319;-63
2023/04/07 06:27:15;;;;;;;8.13;7.53;;;;;;;23.61;25.29;94780.63;6040433;28;109233;-63
2023/04/07 06:30:18;;;;;;;8.20;7.53;;;;;;;23.67;25.63;94784.69;6072343;28;109776;-63
2023/04/07 06:33:24;;;;;;;8.87;8.17;;;;;;;23.76;25.35;94784.66;6087212;28;109552;-63
2023/04/07 06:36:29;;;;;;;7.57;6.87;;;;;;;23.78;25.75;94779.75;6079748;28;109877;-63
2023/04/07 06:39:32;;;;;;;7.80;7.10;;;;;;;23.83;25.27;94782.25;6088125;28;109140;-63
2023/04/07 06:42:35;;;;;;;7.57;6.87;;;;;;;23.89;25.63;94772.94;6087994;28;109201;-63
2023/04/07 06:45:38;;;;;;;8.70;7.90;;;;;;;23.89;25.70;94770.28;6087740;28;109228;-63
2023/04/07 06:48:41;;;;;;;7.57;7.03;;;;;;;23.95;25.55;94777.00;6077240;28;109088;-63
2023/04/07 06:51:46;;;;;;;7.30;6.80;;;;;;;23.97;25.04;94784.69;6087774;28;109194;-63
2023/04/07 06:54:49;;;;;;;7.50;7.00;;;;;;;24.01;25.57;94788.28;6087802;28;109295;-63
2023/04/07 06:57:52;;;;;;;7.53;6.93;;;;;;;23.99;25.51;94780.56;6081886;28;109605;-63
2023/04/07 07:00:55;;;;;;;7.33;6.73;;;;;;;23.99;25.60;94777.13;6061173;28;109099;-63
2023/04/07 07:03:59;;;;;;;7.20;6.70;;;;;;;24.01;25.76;94775.72;6063015;28;109515;-63
2023/04/07 07:07:04;;;;;;;7.43;6.83;;;;;;;24.05;25.89;94776.66;6063525;28;109095;-63
2023/04/07 07:10:09;;;;;;;7.47;6.87;;;;;;;24.06;25.66;94782.78;6053347;28;109252;-63
2023/04/07 07:13:12;;;;;;;6.80;6.30;;;;;;;24.09;25.42;94784.81;6063850;28;109132;-63
2023/04/07 07:16:15;;;;;;;6.70;6.10;;;;;;;24.06;25.91;94778.22;6063119;28;109190;-63
2023/04/07 07:19:19;;;;;;;6.63;6.13;;;;;;;24.06;25.63;94783.56;6063726;28;109123;-63
2023/04/07 07:22:23;;;;;;;7.23;6.63;;;;;;;24.08;25.77;94786.69;6052974;28;109069;-63
2023/04/07 07:25:26;;;;;;;6.77;6.27;;;;;;;24.03;25.58;94786.09;6063586;28;109011;-65
2023/04/07 07:28:29;;;;;;;8.20;7.50;;;;;;;23.95;26.10;94789.56;6064961;28;109259;-63
2023/04/07 07:31:33;;;;;;;9.03;7.90;;;;;;;24.04;25.81;94795.69;6084274;28;110055;-64
2023/04/07 07:34:36;;;;;;;7.70;7.10;;;;;;;24.09;26.05;94792.81;6080428;28;110151;-63
2023/04/07 07:37:41;;;;;;;8.30;7.50;;;;;;;24.12;26.21;94792.16;6087603;28;108730;-63
2023/04/07 07:40:45;;;;;;;8.00;7.30;;;;;;;24.07;26.33;94808.41;6087371;28;109316;-63
2023/04/07 07:43:49;;;;;;;7.17;6.57;;;;;;;24.08;26.00;94807.28;6076250;28;109320;-64
2023/04/07 07:46:52;;;;;;;7.90;7.20;;;;;;;24.12;26.10;94795.63;6086791;28;109791;-63
2023/04/07 07:49:55;;;;;;;8.40;7.03;;;;;;;24.16;25.82;94809.13;6087479;28;109278;-63
2023/04/07 07:53:00;;;;;;;7.30;6.73;;;;;;;24.14;26.03;94803.31;6087009;28;108781;-63
2023/04/07 07:56:03;;;;;;;7.40;6.73;;;;;;;24.06;25.90;94815.63;6076422;28;111357;-63
2023/04/07 07:59:06;;;;;;;7.90;7.30;;;;;;;24.04;26.18;94803.72;6080281;28;110135;-63
2023/04/07 08:02:10;;;;;;;7.27;6.70;;;;;;;24.05;26.12;94802.59;6061810;28;109968;-63
2023/04/07 08:05:13;;;;;;;7.17;6.67;;;;;;;24.11;25.93;94793.28;6062616;28;110211;-63
2023/04/07 08:08:17;;;;;;;6.90;6.30;;;;;;;24.15;26.17;94794.97;6052288;28;109338;-63
2023/04/07 08:11:21;;;;;;;6.43;5.83;;;;;;;24.17;26.24;94805.34;6062997;28;109078;-63
2023/04/07 08:14:24;;;;;;;6.30;5.80;;;;;;;24.08;26.42;94802.72;6062916;28;108897;-64
2023/04/07 08:17:27;;;;;;;6.53;6.00;;;;;;;24.05;26.05;94797.25;6057249;28;109120;-63
2023/04/07 08:20:30;;;;;;;5.90;5.50;;;;;;;23.99;26.06;94804.63;6057502;28;109320;-63
2023/04/07 08:23:34;;;;;;;6.10;5.60;;;;;;;23.89;26.60;94805.81;6062153;28;110096;-63
2023/04/07 08:26:38;;;;;;;6.90;6.30;;;;;;;23.87;26.23;94804.56;6062610;28;109331;-63
2023/04/07 08:29:41;;;;;;;6.10;5.70;;;;;;;23.80;26.50;94802.38;6063027;28;109644;-64
2023/04/07 08:32:45;;;;;;;6.30;5.80;;;;;;;23.74;26.58;94808.22;6086219;28;109553;-63
2023/04/07 08:35:48;;;;;;;5.60;5.20;;;;;;;23.77;26.80;94812.94;6086315;28;109020;-63
2023/04/07 08:38:52;;;;;;;6.00;5.40;;;;;;;23.69;26.75;94800.38;6085736;28;110141;-63
2023/04/07 08:41:57;;;;;;;5.73;5.33;;;;;;;23.72;26.30;94800.53;6074912;28;109598;-63
2023/04/07 08:45:04;;;;;;;5.40;5.00;;;;;;;23.64;26.47;94804.03;6085550;28;110205;-63
2023/04/07 08:48:16;;;;;;;5.40;5.00;;;;;;;23.57;26.78;94791.19;6085291;28;110271;-63
2023/04/07 08:51:27;;;;;;;5.60;5.10;;;;;;;23.61;26.83;94802.00;6080870;28;109002;-63
2023/04/07 08:54:32;;;;;;;5.83;5.33;;;;;;;23.64;26.89;94801.34;6081060;28;109292;-63
2023/04/07 08:57:37;;;;;;;5.37;4.87;;;;;;;23.65;26.89;94794.91;6089802;28;109327;-63
2023/04/07 09:00:41;;;;;;;5.53;5.10;;;;;;;23.66;26.48;94796.47;6071085;28;109175;-63
2023/04/07 09:03:45;;;;;;;5.40;5.00;;;;;;;23.65;26.81;94800.25;6054591;28;109174;-63
2023/04/07 09:06:49;;;;;;;5.30;4.80;;;;;;;23.62;26.75;94800.13;6065847;28;109092;-63
2023/04/07 09:09:55;;;;;;;5.13;4.77;;;;;;;23.58;26.51;94789.28;6065881;28;109516;-63
2023/04/07 09:12:59;;;;;;;5.83;5.43;;;;;;;23.65;27.02;94796.78;6064984;28;110308;-63
2023/04/07 09:16:02;;;;;;;5.03;4.63;;;;;;;23.62;26.57;94798.22;6054816;28;110265;-63
2023/04/07 09:19:06;;;;;;;5.00;4.70;;;;;;;23.64;26.49;94796.00;6064725;28;109219;-63
2023/04/07 09:22:11;;;;;;;5.10;4.70;;;;;;;23.64;26.71;94797.91;6064836;28;111072;-63
2023/04/07 09:25:18;;;;;;;5.10;4.60;;;;;;;23.67;26.55;94800.69;6060230;28;110006;-63
2023/04/07 09:28:21;;;;;;;4.70;4.37;;;;;;;23.69;26.91;94800.38;6059051;28;110118;-63
2023/04/07 09:31:44;;;;;;;5.20;4.87;;;;;;;23.68;26.59;94798.81;6041931;28;109128;-63
2023/04/07 09:34:58;;;;;;;5.00;4.60;;;;;;;23.66;26.96;94793.00;6041152;28;111477;-63
2023/04/07 09:38:03;;;;;;;5.13;4.73;;;;;;;23.60;26.44;94806.56;6030566;28;109307;-63
2023/04/07 09:41:09;;;;;;;4.90;4.50;;;;;;;23.57;26.96;94798.41;6042212;28;109039;-63
2023/04/07 09:44:13;;;;;;;4.67;4.37;;;;;;;23.55;27.12;94797.94;6041660;28;109857;-63
2023/04/07 09:47:16;;;;;;;5.13;4.70;;;;;;;23.51;27.25;94799.66;6040925;28;109489;-65
2023/04/07 09:50:32;;;;;;;5.33;4.93;;;;;;;23.47;27.10;94801.41;6030063;28;109331;-63
2023/04/07 09:53:42;;;;;;;5.00;4.70;;;;;;;23.46;27.06;94807.88;6041364;28;109192;-63
2023/04/07 09:56:47;;;;;;;5.13;4.73;;;;;;;23.44;26.74;94813.53;6040691;28;109680;-63
2023/04/07 09:59:54;;;;;;;5.10;4.70;;;;;;;23.45;27.01;94812.44;6056894;28;110383;-63
2023/04/07 10:02:57;;;;;;;4.57;4.27;;;;;;;23.45;26.80;94825.00;6085813;28;109808;-63
2023/04/07 10:06:01;;;;;;;4.97;4.57;;;;;;;23.42;26.56;94829.09;6088279;28;111032;-63
2023/04/07 10:09:04;;;;;;;4.20;3.90;;;;;;;23.46;26.74;94818.56;6088436;28;109192;-63
2023/04/07 10:12:09;;;;;;;4.80;4.50;;;;;;;23.48;27.13;94808.31;6078128;28;109118;-63
2023/04/07 10:15:14;;;;;;;5.30;4.90;;;;;;;23.47;26.92;94820.13;6088504;28;109290;-63
2023/04/07 10:18:19;;;;;;;4.60;4.23;;;;;;;23.51;26.65;94803.13;6088287;28;108989;-63
2023/04/07 10:21:23;;;;;;;4.60;4.30;;;;;;;23.52;26.97;94810.06;6088064;28;109014;-63
2023/04/07 10:24:46;;;;;;;4.87;4.50;;;;;;;23.52;26.68;94802.06;6077443;28;109203;-63
2023/04/07 10:27:56;;;;;;;4.90;4.60;;;;;;;23.51;26.74;94797.78;6087996;28;110405;-63
2023/04/07 10:30:59;;;;;;;4.17;3.87;;;;;;;23.50;27.19;94798.88;6067667;28;110193;-63
2023/04/07 10:34:02;;;;;;;4.70;4.40;;;;;;;23.46;26.91;94791.84;6054662;28;108719;-65
2023/04/07 10:37:12;;;;;;;4.93;4.50;;;;;;;23.50;26.77;94808.78;6063388;28;110287;-63
2023/04/07 10:40:28;;;;;;;4.17;3.87;;;;;;;23.48;27.06;94809.13;6064418;28;109091;-63
2023/04/07 10:43:40;;;;;;;3.87;3.67;;;;;;;23.47;26.99;94815.56;6064746;28;109064;-63
2023/04/07 10:47:05;;;;;;;4.27;3.97;;;;;;;23.46;27.07;94805.19;6053644;28;109079;-63
2023/04/07 10:50:19;;;;;;;3.67;3.43;;;;;;;23.42;27.49;94813.06;6064170;28;108963;-63
2023/04/07 10:53:23;;;;;;;4.37;3.97;;;;;;;23.42;27.28;94814.97;6063774;28;109005;-63
2023/04/07 10:56:26;;;;;;;3.80;3.50;;;;;;;23.38;26.74;94814.03;6059613;28;109718;-63
2023/04/07 10:59:31;;;;;;;4.10;3.80;;;;;;;23.39;27.03;94821.72;6066368;28;110221;-63
2023/04/07 11:02:35;;;;;;;3.57;3.27;;;;;;;23.39;26.86;94824.41;6086828;28;109981;-63
2023/04/07 11:05:38;;;;;;;4.03;3.73;;;;;;;23.38;26.89;94822.84;6087875;28;109170;-63
2023/04/07 11:08:43;;;;;;;4.13;3.83;;;;;;;23.35;27.53;94814.66;6076158;28;110385;-63
2023/04/07 11:11:50;;;;;;;4.33;4.03;;;;;;;23.36;26.93;94827.72;6087123;28;110213;-63
2023/04/07 11:14:55;;;;;;;3.90;3.60;;;;;;;23.38;27.12;94828.16;6087955;28;108960;-63
2023/04/07 11:18:25;;;;;;;3.60;3.37;;;;;;;23.35;27.57;94826.13;6086694;28;109995;-63
2023/04/07 11:21:29;;;;;;;3.90;3.60;;;;;;;23.32;27.46;94817.97;6076111;28;109172;-63
2023/04/07 11:24:32;;;;;;;3.80;3.50;;;;;;;23.36;27.19;94824.25;6087527;28;109178;-63
2023/04/07 11:27:35;;;;;;;3.80;3.50;;;;;;;23.36;26.94;94819.69;6087452;28;109269;-63
2023/04/07 11:30:46;;;;;;;3.40;3.20;;;;;;;23.36;27.35;94827.72;6064753;28;109342;-63
2023/04/07 11:33:54;;;;;;;4.50;3.17;;;;;;;23.38;27.08;94825.50;6061557;28;109042;-63
2023/04/07 11:36:58;;;;;;;3.77;3.47;;;;;;;23.40;27.55;94825.97;6063395;28;109153;-63
2023/04/07 11:40:01;;;;;;;3.50;3.23;;;;;;;23.41;27.45;94826.75;6063074;28;109229;-63
2023/04/07 11:43:16;;;;;;;3.60;3.33;;;;;;;23.43;27.90;94830.66;6052241;28;110150;-63
2023/04/07 11:46:21;;;;;;;3.80;3.50;;;;;;;23.43;27.66;94825.31;6063133;28;109488;-63
2023/04/07 11:49:26;;;;;;;3.23;3.03;;;;;;;23.40;27.54;94825.97;6063229;28;109369;-63
2023/04/07 11:52:40;;;;;;;3.73;3.43;;;;;;;23.36;27.82;94822.38;6063367;28;108899;-63
2023/04/07 11:55:43;;;;;;;3.50;3.30;;;;;;;23.38;27.83;94822.03;6051927;28;109494;-63
2023/04/07 11:58:49;;;;;;;3.17;2.97;;;;;;;23.40;27.71;94822.50;6065116;28;109013;-63
2023/04/07 12:01:53;;;;;;;3.60;3.30;;;;;;;23.36;27.73;94824.25;6086287;28;109284;-63
2023/04/07 12:05:00;;;;;;;3.20;3.00;;;;;;;23.37;27.86;94825.81;6076682;28;109820;-63
2023/04/07 12:08:03;;;;;;;3.73;3.50;;;;;;;23.34;27.57;94827.22;6085626;28;110047;-63
2023/04/07 12:11:06;;;;;;;3.47;3.27;;;;;;;23.35;27.52;94820.00;6086133;28;109276;-63
2023/04/07 12:14:10;;;;;;;3.67;3.37;;;;;;;23.34;27.67;94823.75;6086741;28;108978;-63
2023/04/07 12:17:22;;;;;;;3.10;2.90;;;;;;;23.32;28.07;94828.66;6075479;28;110215;-63
2023/04/07 12:20:25;;;;;;;2.70;2.53;;;;;;;23.34;28.00;94832.56;6086286;28;109326;-63
2023/04/07 12:23:28;;;;;;;2.97;2.77;;;;;;;23.34;27.77;94826.44;6085962;28;110249;-63
2023/04/07 12:26:31;;;;;;;3.03;2.83;;;;;;;23.32;27.53;94832.09;6086179;28;108699;-63
2023/04/07 12:29:35;;;;;;;3.17;2.97;;;;;;;23.32;27.76;94825.97;6067702;28;110183;-63
2023/04/07 12:32:40;;;;;;;3.43;3.13;;;;;;;23.28;27.72;94817.78;6066158;28;109223;-63
2023/04/07 12:35:43;;;;;;;3.00;2.80;;;;;;;23.33;27.64;94838.22;6065561;28;110163;-63
2023/04/07 12:38:46;;;;;;;3.10;2.90;;;;;;;23.33;28.06;94827.53;6060805;28;109160;-63
2023/04/07 12:41:51;;;;;;;3.20;3.00;;;;;;;23.33;27.84;94827.53;6061050;28;109072;-63
2023/04/07 12:44:55;;;;;;;2.93;2.73;;;;;;;23.32;27.78;94823.31;6066003;28;109207;-63
2023/04/07 12:48:00;;;;;;;3.07;2.87;;;;;;;23.29;27.87;94822.84;6065978;28;109226;-63
2023/04/07 12:51:03;;;;;;;3.30;3.10;;;;;;;23.33;28.06;94822.19;6054885;28;109023;-63
2023/04/07 12:54:06;;;;;;;2.80;2.60;;;;;;;23.30;28.13;94829.75;6065998;28;109827;-63
2023/04/07 12:57:10;;;;;;;3.30;3.10;;;;;;;23.29;28.04;94833.53;6065314;28;110207;-63
2023/04/07 13:00:14;;;;;;;3.30;2.80;;;;;;;23.31;27.65;94835.88;6078333;28;110028;-63
2023/04/07 13:03:18;;;;;;;3.40;3.20;;;;;;;23.29;27.84;94836.19;6077830;28;110005;-63
2023/04/07 13:06:22;;;;;;;3.37;3.10;;;;;;;23.31;27.70;94835.88;6089449;28;109230;-63
2023/04/07 13:09:25;;;;;;;3.50;3.20;;;;;;;23.31;27.59;94841.22;6089611;28;108882;-63
2023/04/07 13:12:28;;;;;;;2.80;2.60;;;;;;;23.32;27.90;94842.00;6084846;28;109217;-63
2023/04/07 13:15:31;;;;;;;3.13;2.93;;;;;;;23.30;27.72;94837.75;6083202;28;110280;-63
2023/04/07 13:18:36;;;;;;;2.80;2.60;;;;;;;23.29;27.35;94841.53;6089649;28;109279;-63
2023/04/07 13:21:39;;;;;;;2.90;2.70;;;;;;;23.29;27.72;94841.53;6089352;28;109071;-63
2023/04/07 13:24:49;;;;;;;3.50;3.30;;;;;;;23.29;28.04;94840.75;6079298;28;110069;-63
2023/04/07 13:27:52;;;;;;;3.07;2.87;;;;;;;23.27;27.57;94843.72;6088593;28;110084;-63
2023/04/07 13:30:55;;;;;;;3.23;3.03;;;;;;;23.27;27.72;94841.03;6070064;28;110204;-63
2023/04/07 13:34:00;;;;;;;3.43;3.20;;;;;;;23.26;27.82;94844.81;6064804;28;109368;-63
2023/04/07 13:37:03;;;;;;;3.17;2.97;;;;;;;23.27;27.63;94846.38;6054776;28;109691;-63
2023/04/07 13:40:08;;;;;;;3.00;2.80;;;;;;;23.25;27.64;94856.59;6065138;28;109208;-63
2023/04/07 13:43:11;;;;;;;2.87;2.67;;;;;;;23.24;27.38;94857.69;6065344;28;109031;-63
2023/04/07 13:46:16;;;;;;;2.97;2.77;;;;;;;23.26;27.53;94854.72;6065331;28;109385;-63
2023/04/07 13:49:31;;;;;;;3.47;3.17;;;;;;;23.23;27.67;94868.69;6058165;28;109175;-63
2023/04/07 13:52:35;;;;;;;2.87;2.67;;;;;;;23.23;28.08;94877.50;6064546;28;109213;-63
2023/04/07 13:55:39;;;;;;;2.90;2.70;;;;;;;23.20;28.00;94875.47;6064995;28;109063;-63
2023/04/07 13:58:42;;;;;;;3.20;2.90;;;;;;;23.22;27.53;94883.94;6055701;28;109454;-63
2023/04/07 14:01:45;;;;;;;3.10;2.90;;;;;;;23.20;27.95;94872.78;6086941;28;109832;-63
2023/04/07 14:04:50;;;;;;;3.00;2.80;;;;;;;23.21;27.38;94882.38;6088775;28;108992;-63
2023/04/07 14:07:53;;;;;;;3.20;2.80;;;;;;;23.19;27.58;94887.25;6088494;28;109012;-63
2023/04/07 14:10:56;;;;;;;3.27;3.07;;;;;;;23.22;28.04;94888.50;6078374;28;109417;-63
2023/04/07 14:13:59;;;;;;;3.20;3.00;;;;;;;23.18;27.97;94888.31;6088326;28;109078;-63
2023/04/07 14:17:02;;;;;;;3.10;2.90;;;;;;;23.18;27.38;94899.00;6087797;28;110079;-63